Bestevaer 2 — PG2801 — position and weather

sailwx.info

Track history (hours):
 
Tides and Currents Weather Stations Pressure Air Temp Water Temp Dewpoint Dewpoint Depression Visibility Wind Speed Wind Dir Waves Ship Positions

Bestevaer 2

Last reported at 2017-Jul-29 18:18 UTC. Time now 2017-Dec-13 13:10 UTC.
Position N 27°49' W 015°13'.
Warning: this ship's position is months out of date.

Length 16 m.

Type: Sailing vessel. MMSI: 244030672.

Date/timePositionNaut miles runAvg speedWind from/ knotsBaromVisibWave heightAir tempDewpointWater temp
2017-Jul-29 18:18N 27°49' W 015°13'3 9.3
2017-Jul-29 17:58N 27°50' W 015°10'5 9.2
2017-Jul-29 17:25N 27°52' W 015°04'4 9.3
2017-Jul-29 16:59N 27°54' W 015°00'5 9.3
2017-Jul-29 16:28N 27°55' W 014°55'10 8.2
2017-Jul-29 15:15N 27°59' W 014°45'2 7.6
2017-Jul-29 14:58N 27°59' W 014°42'8 8.0
2017-Jul-29 13:58N 28°02' W 014°34'9 6.1
2017-Jul-29 12:33N 28°03' W 014°24'1 5.7
2017-Jul-29 12:24N 28°03' W 014°23'6 5.9
2017-Jul-29 11:22N 28°02' W 014°16'2 6.2
2017-Jul-29 11:00N 28°03' W 014°14'12 5.1
2017-Jul-29 08:39N 28°10' W 014°03'1 6.4
2017-Jul-29 08:30N 28°11' W 014°02'40 0.8
2017-Jul-27 07:20N 28°50' W 013°49'2 4.9
2017-Jul-27 07:00N 28°51' W 013°49'0 0.8
2017-Jul-27 06:29N 28°51' W 013°49'0 0.0
2017-Jul-26 23:11N 28°51' W 013°49'0 0.0
2017-Jul-26 19:41N 28°51' W 013°49'0 0.0
2017-Jul-26 04:05N 28°51' W 013°49'0 0.0
2017-Jul-25 21:44N 28°51' W 013°49'0 0.0
2017-Jul-25 21:26N 28°51' W 013°49'  
Track history (hours):
 
Tides and Currents Weather Stations Pressure Air Temp Water Temp Dewpoint Dewpoint Depression Visibility Wind Speed Wind Dir Waves Ship Positions

Bestevaer 2

Last reported at 2017-Jul-29 18:18 UTC. Time now 2017-Dec-13 13:10 UTC.
Position N 27°49' W 015°13'.
Warning: this ship's position is months out of date.

Length 16 m.

Type: Sailing vessel. MMSI: 244030672.

Date/timePositionNaut miles runAvg speedWind from/ knotsBaromVisibWave heightAir tempDewpointWater temp
2017-Jul-29 18:18N 27°49' W 015°13'3 9.3
2017-Jul-29 17:58N 27°50' W 015°10'5 9.2
2017-Jul-29 17:25N 27°52' W 015°04'4 9.3
2017-Jul-29 16:59N 27°54' W 015°00'5 9.3
2017-Jul-29 16:28N 27°55' W 014°55'10 8.2
2017-Jul-29 15:15N 27°59' W 014°45'2 7.6
2017-Jul-29 14:58N 27°59' W 014°42'8 8.0
2017-Jul-29 13:58N 28°02' W 014°34'9 6.1
2017-Jul-29 12:33N 28°03' W 014°24'1 5.7
2017-Jul-29 12:24N 28°03' W 014°23'6 5.9
2017-Jul-29 11:22N 28°02' W 014°16'2 6.2
2017-Jul-29 11:00N 28°03' W 014°14'12 5.1
2017-Jul-29 08:39N 28°10' W 014°03'1 6.4
2017-Jul-29 08:30N 28°11' W 014°02'40 0.8
2017-Jul-27 07:20N 28°50' W 013°49'2 4.9
2017-Jul-27 07:00N 28°51' W 013°49'0 0.8
2017-Jul-27 06:29N 28°51' W 013°49'0 0.0
2017-Jul-26 23:11N 28°51' W 013°49'0 0.0
2017-Jul-26 19:41N 28°51' W 013°49'0 0.0
2017-Jul-26 04:05N 28°51' W 013°49'0 0.0
2017-Jul-25 21:44N 28°51' W 013°49'0 0.0
2017-Jul-25 21:26N 28°51' W 013°49'  

Dump ship's entire track history